sensor_id;sensor_type;location;lat;lon;timestamp;P1;durP1;ratioP1;P2;durP2;ratioP2
3781;SDS011;6881;49.962;7.718;2023-03-01T00:02:03;8.20;;;6.57;;
3781;SDS011;6881;49.962;7.718;2023-03-01T00:04:29;9.37;;;7.00;;
3781;SDS011;6881;49.962;7.718;2023-03-01T00:06:55;16.80;;;9.20;;
3781;SDS011;6881;49.962;7.718;2023-03-01T00:09:21;15.50;;;9.03;;
3781;SDS011;6881;49.962;7.718;2023-03-01T00:11:48;13.73;;;8.77;;
3781;SDS011;6881;49.962;7.718;2023-03-01T00:14:13;14.13;;;8.90;;
3781;SDS011;6881;49.962;7.718;2023-03-01T00:16:41;11.60;;;6.87;;
3781;SDS011;6881;49.962;7.718;2023-03-01T00:19:08;13.67;;;8.53;;
3781;SDS011;6881;49.962;7.718;2023-03-01T00:21:37;11.40;;;7.27;;
3781;SDS011;6881;49.962;7.718;2023-03-01T00:24:03;15.80;;;8.37;;
3781;SDS011;6881;49.962;7.718;2023-03-01T00:26:29;15.60;;;8.67;;
3781;SDS011;6881;49.962;7.718;2023-03-01T00:28:54;10.67;;;8.47;;
3781;SDS011;6881;49.962;7.718;2023-03-01T00:31:22;16.67;;;8.93;;
3781;SDS011;6881;49.962;7.718;2023-03-01T00:33:52;9.77;;;7.50;;
3781;SDS011;6881;49.962;7.718;2023-03-01T00:36:21;12.00;;;7.37;;
3781;SDS011;6881;49.962;7.718;2023-03-01T00:38:47;8.20;;;7.23;;
3781;SDS011;6881;49.962;7.718;2023-03-01T00:41:14;9.53;;;7.37;;
3781;SDS011;6881;49.962;7.718;2023-03-01T00:43:41;11.03;;;6.70;;
3781;SDS011;6881;49.962;7.718;2023-03-01T00:46:11;9.87;;;8.00;;
3781;SDS011;6881;49.962;7.718;2023-03-01T00:48:38;10.20;;;7.50;;
3781;SDS011;6881;49.962;7.718;2023-03-01T00:51:22;9.80;;;8.37;;
3781;SDS011;6881;49.962;7.718;2023-03-01T00:53:50;13.87;;;8.60;;
3781;SDS011;6881;49.962;7.718;2023-03-01T00:56:17;11.47;;;7.70;;
3781;SDS011;6881;49.962;7.718;2023-03-01T00:58:43;15.17;;;7.57;;
3781;SDS011;6881;49.962;7.718;2023-03-01T01:01:09;10.97;;;8.07;;
3781;SDS011;6881;49.962;7.718;2023-03-01T01:03:43;8.53;;;7.33;;
3781;SDS011;6881;49.962;7.718;2023-03-01T01:06:18;10.47;;;7.40;;
3781;SDS011;6881;49.962;7.718;2023-03-01T01:08:46;10.40;;;7.97;;
3781;SDS011;6881;49.962;7.718;2023-03-01T01:11:11;13.00;;;8.97;;
3781;SDS011;6881;49.962;7.718;2023-03-01T01:13:37;11.87;;;7.40;;
3781;SDS011;6881;49.962;7.718;2023-03-01T01:16:03;10.13;;;7.40;;
3781;SDS011;6881;49.962;7.718;2023-03-01T01:18:29;14.80;;;7.63;;
3781;SDS011;6881;49.962;7.718;2023-03-01T01:20:55;14.37;;;8.40;;
3781;SDS011;6881;49.962;7.718;2023-03-01T01:23:20;11.40;;;9.03;;
3781;SDS011;6881;49.962;7.718;2023-03-01T01:25:45;11.70;;;8.93;;
3781;SDS011;6881;49.962;7.718;2023-03-01T01:28:11;10.90;;;8.50;;
3781;SDS011;6881;49.962;7.718;2023-03-01T01:30:36;13.10;;;8.40;;
3781;SDS011;6881;49.962;7.718;2023-03-01T01:33:01;15.57;;;8.90;;
3781;SDS011;6881;49.962;7.718;2023-03-01T01:35:27;11.40;;;8.10;;
3781;SDS011;6881;49.962;7.718;2023-03-01T01:37:52;9.47;;;7.00;;
3781;SDS011;6881;49.962;7.718;2023-03-01T01:40:18;14.80;;;8.13;;
3781;SDS011;6881;49.962;7.718;2023-03-01T01:42:43;15.30;;;9.30;;
3781;SDS011;6881;49.962;7.718;2023-03-01T01:45:24;14.33;;;8.83;;
3781;SDS011;6881;49.962;7.718;2023-03-01T01:47:59;11.83;;;7.77;;
3781;SDS011;6881;49.962;7.718;2023-03-01T01:50:28;13.33;;;7.63;;
3781;SDS011;6881;49.962;7.718;2023-03-01T01:53:03;11.03;;;8.10;;
3781;SDS011;6881;49.962;7.718;2023-03-01T01:55:31;14.13;;;8.30;;
3781;SDS011;6881;49.962;7.718;2023-03-01T01:57:58;13.40;;;9.27;;
3781;SDS011;6881;49.962;7.718;2023-03-01T02:00:26;13.47;;;9.27;;
3781;SDS011;6881;49.962;7.718;2023-03-01T02:02:57;15.87;;;10.07;;
3781;SDS011;6881;49.962;7.718;2023-03-01T02:08:05;10.77;;;7.03;;
3781;SDS011;6881;49.962;7.718;2023-03-01T02:10:32;13.50;;;7.40;;
3781;SDS011;6881;49.962;7.718;2023-03-01T02:12:58;11.40;;;7.50;;
3781;SDS011;6881;49.962;7.718;2023-03-01T02:15:23;14.87;;;9.37;;
3781;SDS011;6881;49.962;7.718;2023-03-01T02:17:49;15.40;;;8.63;;
3781;SDS011;6881;49.962;7.718;2023-03-01T02:20:23;13.37;;;9.20;;
3781;SDS011;6881;49.962;7.718;2023-03-01T02:22:51;14.10;;;8.97;;
3781;SDS011;6881;49.962;7.718;2023-03-01T02:25:25;11.13;;;8.00;;
3781;SDS011;6881;49.962;7.718;2023-03-01T02:30:26;12.70;;;9.13;;
3781;SDS011;6881;49.962;7.718;2023-03-01T02:32:52;23.53;;;11.57;;
3781;SDS011;6881;49.962;7.718;2023-03-01T02:35:21;25.10;;;12.93;;
3781;SDS011;6881;49.962;7.718;2023-03-01T02:37:47;25.40;;;13.20;;
3781;SDS011;6881;49.962;7.718;2023-03-01T02:40:14;20.23;;;12.40;;
3781;SDS011;6881;49.962;7.718;2023-03-01T02:43:00;17.30;;;11.50;;
3781;SDS011;6881;49.962;7.718;2023-03-01T02:45:26;16.07;;;12.63;;
3781;SDS011;6881;49.962;7.718;2023-03-01T02:47:55;12.83;;;11.00;;
3781;SDS011;6881;49.962;7.718;2023-03-01T02:52:55;18.47;;;10.17;;
3781;SDS011;6881;49.962;7.718;2023-03-01T02:55:23;14.23;;;9.17;;
3781;SDS011;6881;49.962;7.718;2023-03-01T02:57:49;14.53;;;9.40;;
3781;SDS011;6881;49.962;7.718;2023-03-01T03:00:28;14.63;;;9.03;;
3781;SDS011;6881;49.962;7.718;2023-03-01T03:03:05;12.43;;;7.93;;
3781;SDS011;6881;49.962;7.718;2023-03-01T03:05:31;15.70;;;9.30;;
3781;SDS011;6881;49.962;7.718;2023-03-01T03:07:58;15.43;;;8.93;;
3781;SDS011;6881;49.962;7.718;2023-03-01T03:10:32;15.53;;;8.97;;
3781;SDS011;6881;49.962;7.718;2023-03-01T03:13:01;14.57;;;8.87;;
3781;SDS011;6881;49.962;7.718;2023-03-01T03:15:31;15.53;;;9.60;;
3781;SDS011;6881;49.962;7.718;2023-03-01T03:17:57;17.33;;;9.70;;
3781;SDS011;6881;49.962;7.718;2023-03-01T03:20:24;18.17;;;10.57;;
3781;SDS011;6881;49.962;7.718;2023-03-01T03:22:52;12.93;;;8.17;;
3781;SDS011;6881;49.962;7.718;2023-03-01T03:25:19;13.80;;;8.33;;
3781;SDS011;6881;49.962;7.718;2023-03-01T03:27:46;17.27;;;8.90;;
3781;SDS011;6881;49.962;7.718;2023-03-01T03:30:14;10.90;;;8.27;;
3781;SDS011;6881;49.962;7.718;2023-03-01T03:32:42;17.10;;;9.40;;
3781;SDS011;6881;49.962;7.718;2023-03-01T03:35:17;12.47;;;8.37;;
3781;SDS011;6881;49.962;7.718;2023-03-01T03:37:43;14.90;;;8.83;;
3781;SDS011;6881;49.962;7.718;2023-03-01T03:40:28;11.17;;;8.23;;
3781;SDS011;6881;49.962;7.718;2023-03-01T03:42:58;18.20;;;8.43;;
3781;SDS011;6881;49.962;7.718;2023-03-01T03:45:23;15.30;;;9.40;;
3781;SDS011;6881;49.962;7.718;2023-03-01T03:47:49;15.80;;;9.13;;
3781;SDS011;6881;49.962;7.718;2023-03-01T03:50:15;16.57;;;9.40;;
3781;SDS011;6881;49.962;7.718;2023-03-01T03:52:41;14.47;;;10.03;;
3781;SDS011;6881;49.962;7.718;2023-03-01T03:55:08;17.33;;;10.97;;
3781;SDS011;6881;49.962;7.718;2023-03-01T03:57:34;19.90;;;9.40;;
3781;SDS011;6881;49.962;7.718;2023-03-01T04:00:00;16.93;;;10.00;;
3781;SDS011;6881;49.962;7.718;2023-03-01T04:02:25;13.70;;;9.70;;
3781;SDS011;6881;49.962;7.718;2023-03-01T04:04:51;11.40;;;8.70;;
3781;SDS011;6881;49.962;7.718;2023-03-01T04:07:16;13.70;;;9.47;;
3781;SDS011;6881;49.962;7.718;2023-03-01T04:09:42;18.00;;;9.60;;
3781;SDS011;6881;49.962;7.718;2023-03-01T04:12:08;22.63;;;11.67;;
3781;SDS011;6881;49.962;7.718;2023-03-01T04:14:34;17.23;;;9.87;;
3781;SDS011;6881;49.962;7.718;2023-03-01T04:17:00;17.90;;;10.67;;
3781;SDS011;6881;49.962;7.718;2023-03-01T04:19:26;13.33;;;8.70;;
3781;SDS011;6881;49.962;7.718;2023-03-01T04:21:52;23.93;;;11.13;;
3781;SDS011;6881;49.962;7.718;2023-03-01T04:24:17;13.80;;;9.37;;
3781;SDS011;6881;49.962;7.718;2023-03-01T04:26:42;15.67;;;9.60;;
3781;SDS011;6881;49.962;7.718;2023-03-01T04:29:08;17.30;;;10.60;;
3781;SDS011;6881;49.962;7.718;2023-03-01T04:31:33;14.60;;;9.80;;
3781;SDS011;6881;49.962;7.718;2023-03-01T04:33:59;16.37;;;9.63;;
3781;SDS011;6881;49.962;7.718;2023-03-01T04:36:26;16.40;;;9.90;;
3781;SDS011;6881;49.962;7.718;2023-03-01T04:38:52;16.23;;;10.20;;
3781;SDS011;6881;49.962;7.718;2023-03-01T04:41:19;18.37;;;11.20;;
3781;SDS011;6881;49.962;7.718;2023-03-01T04:43:46;17.77;;;11.20;;
3781;SDS011;6881;49.962;7.718;2023-03-01T04:46:12;14.03;;;10.30;;
3781;SDS011;6881;49.962;7.718;2023-03-01T04:48:40;23.53;;;11.77;;
3781;SDS011;6881;49.962;7.718;2023-03-01T04:51:06;15.03;;;10.53;;
3781;SDS011;6881;49.962;7.718;2023-03-01T04:53:33;16.87;;;10.40;;
3781;SDS011;6881;49.962;7.718;2023-03-01T04:55:59;17.63;;;10.70;;
3781;SDS011;6881;49.962;7.718;2023-03-01T04:58:27;23.90;;;10.00;;
3781;SDS011;6881;49.962;7.718;2023-03-01T05:00:53;19.83;;;10.70;;
3781;SDS011;6881;49.962;7.718;2023-03-01T05:03:20;19.20;;;10.53;;
3781;SDS011;6881;49.962;7.718;2023-03-01T05:05:46;16.67;;;11.30;;
3781;SDS011;6881;49.962;7.718;2023-03-01T05:08:13;17.43;;;10.53;;
3781;SDS011;6881;49.962;7.718;2023-03-01T05:10:43;19.30;;;12.30;;
3781;SDS011;6881;49.962;7.718;2023-03-01T05:13:10;16.27;;;10.50;;
3781;SDS011;6881;49.962;7.718;2023-03-01T05:15:38;16.40;;;10.07;;
3781;SDS011;6881;49.962;7.718;2023-03-01T05:18:04;14.80;;;9.47;;
3781;SDS011;6881;49.962;7.718;2023-03-01T05:20:35;15.17;;;9.63;;
3781;SDS011;6881;49.962;7.718;2023-03-01T05:23:01;17.93;;;12.00;;
3781;SDS011;6881;49.962;7.718;2023-03-01T05:25:30;22.80;;;11.93;;
3781;SDS011;6881;49.962;7.718;2023-03-01T05:27:58;22.30;;;13.07;;
3781;SDS011;6881;49.962;7.718;2023-03-01T05:30:24;18.57;;;11.80;;
3781;SDS011;6881;49.962;7.718;2023-03-01T05:32:49;15.00;;;10.53;;
3781;SDS011;6881;49.962;7.718;2023-03-01T05:35:20;27.70;;;13.13;;
3781;SDS011;6881;49.962;7.718;2023-03-01T05:37:47;23.10;;;10.77;;
3781;SDS011;6881;49.962;7.718;2023-03-01T05:40:14;16.63;;;9.90;;
3781;SDS011;6881;49.962;7.718;2023-03-01T05:42:42;19.07;;;11.40;;
3781;SDS011;6881;49.962;7.718;2023-03-01T05:45:08;18.37;;;10.80;;
3781;SDS011;6881;49.962;7.718;2023-03-01T05:47:37;17.70;;;10.50;;
3781;SDS011;6881;49.962;7.718;2023-03-01T05:50:08;18.00;;;10.57;;
3781;SDS011;6881;49.962;7.718;2023-03-01T05:52:35;23.10;;;12.50;;
3781;SDS011;6881;49.962;7.718;2023-03-01T05:55:01;17.43;;;11.93;;
3781;SDS011;6881;49.962;7.718;2023-03-01T05:57:27;19.30;;;12.27;;
3781;SDS011;6881;49.962;7.718;2023-03-01T05:59:53;18.90;;;11.53;;
3781;SDS011;6881;49.962;7.718;2023-03-01T06:02:18;13.17;;;9.93;;
3781;SDS011;6881;49.962;7.718;2023-03-01T06:04:44;14.63;;;9.60;;
3781;SDS011;6881;49.962;7.718;2023-03-01T06:07:10;18.93;;;10.27;;
3781;SDS011;6881;49.962;7.718;2023-03-01T06:09:36;20.03;;;11.67;;
3781;SDS011;6881;49.962;7.718;2023-03-01T06:12:01;22.40;;;12.57;;
3781;SDS011;6881;49.962;7.718;2023-03-01T06:14:26;21.07;;;10.90;;
3781;SDS011;6881;49.962;7.718;2023-03-01T06:16:52;20.57;;;10.20;;
3781;SDS011;6881;49.962;7.718;2023-03-01T06:19:17;15.30;;;10.43;;
3781;SDS011;6881;49.962;7.718;2023-03-01T06:21:42;24.00;;;11.73;;
3781;SDS011;6881;49.962;7.718;2023-03-01T06:24:08;19.83;;;11.33;;
3781;SDS011;6881;49.962;7.718;2023-03-01T06:26:34;20.63;;;11.63;;
3781;SDS011;6881;49.962;7.718;2023-03-01T06:28:59;18.30;;;11.27;;
3781;SDS011;6881;49.962;7.718;2023-03-01T06:31:24;18.80;;;10.47;;
3781;SDS011;6881;49.962;7.718;2023-03-01T06:33:50;17.90;;;10.97;;
3781;SDS011;6881;49.962;7.718;2023-03-01T06:36:15;23.77;;;11.23;;
3781;SDS011;6881;49.962;7.718;2023-03-01T06:38:43;19.90;;;11.07;;
3781;SDS011;6881;49.962;7.718;2023-03-01T06:41:09;17.60;;;11.17;;
3781;SDS011;6881;49.962;7.718;2023-03-01T06:43:34;19.13;;;10.47;;
3781;SDS011;6881;49.962;7.718;2023-03-01T06:46:00;18.23;;;10.90;;
3781;SDS011;6881;49.962;7.718;2023-03-01T06:48:26;19.33;;;11.37;;
3781;SDS011;6881;49.962;7.718;2023-03-01T06:50:51;19.70;;;11.50;;
3781;SDS011;6881;49.962;7.718;2023-03-01T06:53:16;17.63;;;10.53;;
3781;SDS011;6881;49.962;7.718;2023-03-01T06:55:42;17.97;;;10.90;;
3781;SDS011;6881;49.962;7.718;2023-03-01T06:58:08;18.40;;;10.60;;
3781;SDS011;6881;49.962;7.718;2023-03-01T07:00:34;21.13;;;11.90;;
3781;SDS011;6881;49.962;7.718;2023-03-01T07:03:00;17.00;;;12.60;;
3781;SDS011;6881;49.962;7.718;2023-03-01T07:05:27;16.43;;;11.50;;
3781;SDS011;6881;49.962;7.718;2023-03-01T07:07:53;20.53;;;11.80;;
3781;SDS011;6881;49.962;7.718;2023-03-01T07:10:20;17.73;;;12.77;;
3781;SDS011;6881;49.962;7.718;2023-03-01T07:12:45;18.57;;;12.03;;
3781;SDS011;6881;49.962;7.718;2023-03-01T07:15:11;21.47;;;12.50;;
3781;SDS011;6881;49.962;7.718;2023-03-01T07:17:37;20.53;;;10.80;;
3781;SDS011;6881;49.962;7.718;2023-03-01T07:20:02;20.20;;;11.43;;
3781;SDS011;6881;49.962;7.718;2023-03-01T07:22:28;22.77;;;11.43;;
3781;SDS011;6881;49.962;7.718;2023-03-01T07:24:53;21.10;;;11.83;;
3781;SDS011;6881;49.962;7.718;2023-03-01T07:27:19;18.80;;;11.13;;
3781;SDS011;6881;49.962;7.718;2023-03-01T07:29:44;16.03;;;11.03;;
3781;SDS011;6881;49.962;7.718;2023-03-01T07:32:09;16.27;;;10.90;;
3781;SDS011;6881;49.962;7.718;2023-03-01T07:34:35;22.20;;;12.67;;
3781;SDS011;6881;49.962;7.718;2023-03-01T07:37:01;18.27;;;11.77;;
3781;SDS011;6881;49.962;7.718;2023-03-01T07:39:26;19.43;;;12.90;;
3781;SDS011;6881;49.962;7.718;2023-03-01T07:41:51;21.40;;;12.57;;
3781;SDS011;6881;49.962;7.718;2023-03-01T07:44:17;17.90;;;12.07;;
3781;SDS011;6881;49.962;7.718;2023-03-01T07:46:43;17.40;;;11.47;;
3781;SDS011;6881;49.962;7.718;2023-03-01T07:49:09;15.70;;;10.70;;
3781;SDS011;6881;49.962;7.718;2023-03-01T07:51:34;20.27;;;11.47;;
3781;SDS011;6881;49.962;7.718;2023-03-01T07:54:00;16.20;;;10.20;;
3781;SDS011;6881;49.962;7.718;2023-03-01T07:56:25;13.80;;;9.77;;
3781;SDS011;6881;49.962;7.718;2023-03-01T07:58:50;15.77;;;10.17;;
3781;SDS011;6881;49.962;7.718;2023-03-01T08:01:17;14.50;;;9.27;;
3781;SDS011;6881;49.962;7.718;2023-03-01T08:03:43;16.60;;;11.23;;
3781;SDS011;6881;49.962;7.718;2023-03-01T08:06:09;17.40;;;10.23;;
3781;SDS011;6881;49.962;7.718;2023-03-01T08:08:36;14.67;;;9.73;;
3781;SDS011;6881;49.962;7.718;2023-03-01T08:11:02;14.40;;;9.97;;
3781;SDS011;6881;49.962;7.718;2023-03-01T08:13:28;15.57;;;11.40;;
3781;SDS011;6881;49.962;7.718;2023-03-01T08:15:54;17.10;;;11.80;;
3781;SDS011;6881;49.962;7.718;2023-03-01T08:18:19;16.77;;;11.00;;
3781;SDS011;6881;49.962;7.718;2023-03-01T08:20:46;16.70;;;9.80;;
3781;SDS011;6881;49.962;7.718;2023-03-01T08:23:11;19.20;;;11.17;;
3781;SDS011;6881;49.962;7.718;2023-03-01T08:25:37;15.50;;;10.70;;
3781;SDS011;6881;49.962;7.718;2023-03-01T08:28:03;15.03;;;10.50;;
3781;SDS011;6881;49.962;7.718;2023-03-01T08:30:29;18.83;;;11.00;;
3781;SDS011;6881;49.962;7.718;2023-03-01T08:32:54;16.40;;;11.33;;
3781;SDS011;6881;49.962;7.718;2023-03-01T08:35:20;19.80;;;12.70;;
3781;SDS011;6881;49.962;7.718;2023-03-01T08:37:45;14.23;;;10.53;;
3781;SDS011;6881;49.962;7.718;2023-03-01T08:40:11;19.70;;;12.67;;
3781;SDS011;6881;49.962;7.718;2023-03-01T08:42:38;15.47;;;10.63;;
3781;SDS011;6881;49.962;7.718;2023-03-01T08:45:05;18.23;;;11.60;;
3781;SDS011;6881;49.962;7.718;2023-03-01T08:47:31;14.40;;;10.90;;
3781;SDS011;6881;49.962;7.718;2023-03-01T08:49:58;15.90;;;12.20;;
3781;SDS011;6881;49.962;7.718;2023-03-01T08:52:24;14.03;;;11.90;;
3781;SDS011;6881;49.962;7.718;2023-03-01T08:54:49;16.27;;;12.60;;
3781;SDS011;6881;49.962;7.718;2023-03-01T08:57:15;16.83;;;12.70;;
3781;SDS011;6881;49.962;7.718;2023-03-01T08:59:40;16.20;;;13.50;;
3781;SDS011;6881;49.962;7.718;2023-03-01T09:02:10;15.20;;;12.83;;
3781;SDS011;6881;49.962;7.718;2023-03-01T09:04:37;17.43;;;13.77;;
3781;SDS011;6881;49.962;7.718;2023-03-01T09:07:03;15.60;;;12.70;;
3781;SDS011;6881;49.962;7.718;2023-03-01T09:09:29;16.70;;;13.10;;
3781;SDS011;6881;49.962;7.718;2023-03-01T09:11:54;17.03;;;13.83;;
3781;SDS011;6881;49.962;7.718;2023-03-01T09:14:20;17.30;;;12.63;;
3781;SDS011;6881;49.962;7.718;2023-03-01T09:16:45;15.10;;;13.00;;
3781;SDS011;6881;49.962;7.718;2023-03-01T09:19:11;18.20;;;13.40;;
3781;SDS011;6881;49.962;7.718;2023-03-01T09:21:37;20.17;;;13.90;;
3781;SDS011;6881;49.962;7.718;2023-03-01T09:24:02;16.00;;;12.90;;
3781;SDS011;6881;49.962;7.718;2023-03-01T09:26:28;16.37;;;12.33;;
3781;SDS011;6881;49.962;7.718;2023-03-01T09:28:54;18.87;;;15.23;;
3781;SDS011;6881;49.962;7.718;2023-03-01T09:31:21;18.13;;;12.40;;
3781;SDS011;6881;49.962;7.718;2023-03-01T09:33:49;15.50;;;13.87;;
3781;SDS011;6881;49.962;7.718;2023-03-01T09:36:18;18.37;;;14.40;;
3781;SDS011;6881;49.962;7.718;2023-03-01T09:38:45;17.10;;;13.20;;
3781;SDS011;6881;49.962;7.718;2023-03-01T09:46:19;16.13;;;13.87;;
3781;SDS011;6881;49.962;7.718;2023-03-01T09:48:48;14.70;;;13.07;;
3781;SDS011;6881;49.962;7.718;2023-03-01T09:51:34;18.53;;;13.53;;
3781;SDS011;6881;49.962;7.718;2023-03-01T09:54:01;14.83;;;13.23;;
3781;SDS011;6881;49.962;7.718;2023-03-01T09:56:30;16.10;;;13.90;;
3781;SDS011;6881;49.962;7.718;2023-03-01T09:59:02;18.00;;;13.07;;
3781;SDS011;6881;49.962;7.718;2023-03-01T10:01:39;15.67;;;13.13;;
3781;SDS011;6881;49.962;7.718;2023-03-01T10:09:55;18.60;;;15.40;;
3781;SDS011;6881;49.962;7.718;2023-03-01T10:12:23;17.13;;;13.00;;
3781;SDS011;6881;49.962;7.718;2023-03-01T10:15:14;17.17;;;15.37;;
3781;SDS011;6881;49.962;7.718;2023-03-01T10:22:50;17.70;;;14.37;;
3781;SDS011;6881;49.962;7.718;2023-03-01T10:25:27;15.73;;;12.73;;
3781;SDS011;6881;49.962;7.718;2023-03-01T10:28:02;21.67;;;16.63;;
3781;SDS011;6881;49.962;7.718;2023-03-01T10:30:37;17.10;;;14.27;;
3781;SDS011;6881;49.962;7.718;2023-03-01T10:33:08;19.27;;;14.80;;
3781;SDS011;6881;49.962;7.718;2023-03-01T10:35:39;20.43;;;15.30;;
3781;SDS011;6881;49.962;7.718;2023-03-01T10:38:10;16.07;;;13.90;;
3781;SDS011;6881;49.962;7.718;2023-03-01T10:40:49;18.87;;;14.70;;
3781;SDS011;6881;49.962;7.718;2023-03-01T10:43:16;16.93;;;13.90;;
3781;SDS011;6881;49.962;7.718;2023-03-01T10:45:41;24.00;;;14.57;;
3781;SDS011;6881;49.962;7.718;2023-03-01T10:48:11;20.07;;;15.37;;
3781;SDS011;6881;49.962;7.718;2023-03-01T10:50:40;16.40;;;13.03;;
3781;SDS011;6881;49.962;7.718;2023-03-01T10:58:26;19.30;;;15.40;;
3781;SDS011;6881;49.962;7.718;2023-03-01T11:03:21;17.13;;;15.30;;
3781;SDS011;6881;49.962;7.718;2023-03-01T11:13:54;20.63;;;14.93;;
3781;SDS011;6881;49.962;7.718;2023-03-01T11:16:26;17.40;;;13.50;;
3781;SDS011;6881;49.962;7.718;2023-03-01T11:18:58;20.77;;;14.77;;
3781;SDS011;6881;49.962;7.718;2023-03-01T11:21:36;17.50;;;14.70;;
3781;SDS011;6881;49.962;7.718;2023-03-01T11:24:05;15.93;;;12.80;;
3781;SDS011;6881;49.962;7.718;2023-03-01T11:26:36;17.87;;;13.83;;
3781;SDS011;6881;49.962;7.718;2023-03-01T11:29:06;22.00;;;14.53;;
3781;SDS011;6881;49.962;7.718;2023-03-01T11:31:36;20.07;;;15.37;;
3781;SDS011;6881;49.962;7.718;2023-03-01T11:34:08;19.77;;;15.17;;
3781;SDS011;6881;49.962;7.718;2023-03-01T11:36:52;15.80;;;14.13;;
3781;SDS011;6881;49.962;7.718;2023-03-01T11:40:02;18.07;;;14.37;;
3781;SDS011;6881;49.962;7.718;2023-03-01T11:42:46;20.33;;;15.70;;
3781;SDS011;6881;49.962;7.718;2023-03-01T11:45:15;17.80;;;14.80;;
3781;SDS011;6881;49.962;7.718;2023-03-01T12:22:48;18.67;;;14.20;;
3781;SDS011;6881;49.962;7.718;2023-03-01T12:48:50;15.53;;;12.70;;
3781;SDS011;6881;49.962;7.718;2023-03-01T12:51:23;16.33;;;14.00;;
3781;SDS011;6881;49.962;7.718;2023-03-01T12:53:53;16.43;;;12.33;;
3781;SDS011;6881;49.962;7.718;2023-03-01T12:56:24;14.93;;;13.30;;
3781;SDS011;6881;49.962;7.718;2023-03-01T13:09:13;14.43;;;12.40;;
3781;SDS011;6881;49.962;7.718;2023-03-01T13:11:43;16.60;;;13.70;;
3781;SDS011;6881;49.962;7.718;2023-03-01T13:16:47;17.83;;;14.17;;
3781;SDS011;6881;49.962;7.718;2023-03-01T13:21:44;14.80;;;12.97;;
3781;SDS011;6881;49.962;7.718;2023-03-01T13:27:08;18.57;;;14.20;;
3781;SDS011;6881;49.962;7.718;2023-03-01T13:29:54;20.10;;;18.00;;
3781;SDS011;6881;49.962;7.718;2023-03-01T13:32:25;16.57;;;14.60;;
3781;SDS011;6881;49.962;7.718;2023-03-01T13:37:36;16.57;;;14.00;;
3781;SDS011;6881;49.962;7.718;2023-03-01T13:42:54;19.97;;;13.97;;
3781;SDS011;6881;49.962;7.718;2023-03-01T13:45:39;15.07;;;13.47;;
3781;SDS011;6881;49.962;7.718;2023-03-01T13:48:10;15.37;;;13.70;;
3781;SDS011;6881;49.962;7.718;2023-03-01T13:50:38;16.20;;;13.83;;
3781;SDS011;6881;49.962;7.718;2023-03-01T13:53:11;17.27;;;13.53;;
3781;SDS011;6881;49.962;7.718;2023-03-01T13:55:42;14.10;;;12.53;;
3781;SDS011;6881;49.962;7.718;2023-03-01T14:00:59;12.93;;;11.57;;
3781;SDS011;6881;49.962;7.718;2023-03-01T14:03:27;13.80;;;12.33;;
3781;SDS011;6881;49.962;7.718;2023-03-01T14:08:31;15.90;;;12.40;;
3781;SDS011;6881;49.962;7.718;2023-03-01T14:19:21;16.27;;;13.43;;
3781;SDS011;6881;49.962;7.718;2023-03-01T14:24:38;15.43;;;11.47;;
3781;SDS011;6881;49.962;7.718;2023-03-01T14:27:09;13.90;;;9.53;;
3781;SDS011;6881;49.962;7.718;2023-03-01T14:29:37;12.87;;;10.90;;
3781;SDS011;6881;49.962;7.718;2023-03-01T14:32:20;14.60;;;10.43;;
3781;SDS011;6881;49.962;7.718;2023-03-01T14:34:47;13.63;;;10.57;;
3781;SDS011;6881;49.962;7.718;2023-03-01T14:37:33;11.63;;;9.77;;
3781;SDS011;6881;49.962;7.718;2023-03-01T14:39:59;10.60;;;8.67;;
3781;SDS011;6881;49.962;7.718;2023-03-01T14:42:31;10.00;;;8.70;;
3781;SDS011;6881;49.962;7.718;2023-03-01T14:45:00;12.70;;;9.57;;
3781;SDS011;6881;49.962;7.718;2023-03-01T14:47:28;13.43;;;9.07;;
3781;SDS011;6881;49.962;7.718;2023-03-01T14:49:59;14.27;;;9.90;;
3781;SDS011;6881;49.962;7.718;2023-03-01T14:52:31;12.23;;;10.70;;
3781;SDS011;6881;49.962;7.718;2023-03-01T14:54:59;10.57;;;8.90;;
3781;SDS011;6881;49.962;7.718;2023-03-01T14:57:28;13.00;;;7.83;;
3781;SDS011;6881;49.962;7.718;2023-03-01T14:59:57;16.13;;;9.20;;
3781;SDS011;6881;49.962;7.718;2023-03-01T15:02:25;12.80;;;9.20;;
3781;SDS011;6881;49.962;7.718;2023-03-01T15:04:52;11.80;;;8.60;;
3781;SDS011;6881;49.962;7.718;2023-03-01T15:07:21;13.43;;;9.20;;
3781;SDS011;6881;49.962;7.718;2023-03-01T15:09:48;11.23;;;8.30;;
3781;SDS011;6881;49.962;7.718;2023-03-01T15:14:54;13.60;;;9.40;;
3781;SDS011;6881;49.962;7.718;2023-03-01T15:19:59;15.47;;;9.47;;
3781;SDS011;6881;49.962;7.718;2023-03-01T15:22:26;12.73;;;8.33;;
3781;SDS011;6881;49.962;7.718;2023-03-01T15:24:52;12.03;;;8.40;;
3781;SDS011;6881;49.962;7.718;2023-03-01T15:27:18;13.23;;;8.80;;
3781;SDS011;6881;49.962;7.718;2023-03-01T15:29:56;11.67;;;8.23;;
3781;SDS011;6881;49.962;7.718;2023-03-01T15:32:34;8.67;;;7.10;;
3781;SDS011;6881;49.962;7.718;2023-03-01T15:37:59;12.53;;;8.27;;
3781;SDS011;6881;49.962;7.718;2023-03-01T15:40:29;11.27;;;8.27;;
3781;SDS011;6881;49.962;7.718;2023-03-01T15:43:02;12.67;;;8.13;;
3781;SDS011;6881;49.962;7.718;2023-03-01T15:45:30;14.47;;;7.97;;
3781;SDS011;6881;49.962;7.718;2023-03-01T15:48:02;10.43;;;8.30;;
3781;SDS011;6881;49.962;7.718;2023-03-01T15:50:58;12.57;;;8.90;;
3781;SDS011;6881;49.962;7.718;2023-03-01T15:53:23;14.83;;;10.27;;
3781;SDS011;6881;49.962;7.718;2023-03-01T15:55:49;14.40;;;8.97;;
3781;SDS011;6881;49.962;7.718;2023-03-01T15:58:20;15.47;;;9.80;;
3781;SDS011;6881;49.962;7.718;2023-03-01T16:00:47;11.37;;;7.93;;
3781;SDS011;6881;49.962;7.718;2023-03-01T16:03:16;11.23;;;8.40;;
3781;SDS011;6881;49.962;7.718;2023-03-01T16:05:46;12.17;;;8.67;;
3781;SDS011;6881;49.962;7.718;2023-03-01T16:08:12;14.00;;;8.47;;
3781;SDS011;6881;49.962;7.718;2023-03-01T16:10:37;11.13;;;8.37;;
3781;SDS011;6881;49.962;7.718;2023-03-01T16:13:03;10.20;;;7.10;;
3781;SDS011;6881;49.962;7.718;2023-03-01T16:15:29;9.73;;;6.70;;
3781;SDS011;6881;49.962;7.718;2023-03-01T16:17:56;12.17;;;9.70;;
3781;SDS011;6881;49.962;7.718;2023-03-01T16:20:23;9.73;;;8.60;;
3781;SDS011;6881;49.962;7.718;2023-03-01T16:22:49;12.07;;;8.20;;
3781;SDS011;6881;49.962;7.718;2023-03-01T16:25:15;12.33;;;9.00;;
3781;SDS011;6881;49.962;7.718;2023-03-01T16:27:42;12.20;;;7.87;;
3781;SDS011;6881;49.962;7.718;2023-03-01T16:30:09;14.00;;;9.67;;
3781;SDS011;6881;49.962;7.718;2023-03-01T16:32:39;13.50;;;8.20;;
3781;SDS011;6881;49.962;7.718;2023-03-01T16:35:05;11.53;;;8.03;;
3781;SDS011;6881;49.962;7.718;2023-03-01T16:37:32;9.73;;;7.30;;
3781;SDS011;6881;49.962;7.718;2023-03-01T16:39:58;9.97;;;7.50;;
3781;SDS011;6881;49.962;7.718;2023-03-01T16:42:24;11.40;;;8.63;;
3781;SDS011;6881;49.962;7.718;2023-03-01T16:44:54;14.17;;;7.80;;
3781;SDS011;6881;49.962;7.718;2023-03-01T16:47:22;12.33;;;7.90;;
3781;SDS011;6881;49.962;7.718;2023-03-01T16:49:50;9.67;;;7.00;;
3781;SDS011;6881;49.962;7.718;2023-03-01T16:52:16;12.37;;;8.70;;
3781;SDS011;6881;49.962;7.718;2023-03-01T16:54:42;12.83;;;8.77;;
3781;SDS011;6881;49.962;7.718;2023-03-01T16:57:07;18.60;;;8.63;;
3781;SDS011;6881;49.962;7.718;2023-03-01T16:59:32;13.17;;;8.73;;
3781;SDS011;6881;49.962;7.718;2023-03-01T17:01:58;8.50;;;7.33;;
3781;SDS011;6881;49.962;7.718;2023-03-01T17:04:23;13.50;;;7.37;;
3781;SDS011;6881;49.962;7.718;2023-03-01T17:06:49;13.67;;;8.43;;
3781;SDS011;6881;49.962;7.718;2023-03-01T17:09:14;11.67;;;7.20;;
3781;SDS011;6881;49.962;7.718;2023-03-01T17:11:41;15.80;;;8.50;;
3781;SDS011;6881;49.962;7.718;2023-03-01T17:14:07;10.33;;;8.40;;
3781;SDS011;6881;49.962;7.718;2023-03-01T17:16:32;11.50;;;8.03;;
3781;SDS011;6881;49.962;7.718;2023-03-01T17:18:57;13.73;;;8.77;;
3781;SDS011;6881;49.962;7.718;2023-03-01T17:21:23;9.90;;;7.93;;
3781;SDS011;6881;49.962;7.718;2023-03-01T17:23:48;12.00;;;7.90;;
3781;SDS011;6881;49.962;7.718;2023-03-01T17:26:14;10.60;;;7.50;;
3781;SDS011;6881;49.962;7.718;2023-03-01T17:28:40;12.30;;;7.43;;